createdAt,value
2018-12-24T00:00:16.046Z,13.64
2018-12-24T00:01:16.033Z,13.62
2018-12-24T00:02:16.007Z,13.64
2018-12-24T00:03:16.026Z,13.57
2018-12-24T00:04:15.990Z,13.59
2018-12-24T00:05:15.973Z,13.66
2018-12-24T00:06:15.968Z,13.69
2018-12-24T00:07:15.957Z,13.69
2018-12-24T00:08:15.972Z,13.63
2018-12-24T00:09:15.936Z,13.64
2018-12-24T00:10:15.917Z,13.67
2018-12-24T00:11:15.912Z,13.64
2018-12-24T00:12:15.898Z,13.63
2018-12-24T00:13:15.916Z,13.66
2018-12-24T00:14:15.877Z,13.66
2018-12-24T00:15:15.863Z,13.69
2018-12-24T00:16:15.870Z,13.64
2018-12-24T00:17:15.840Z,13.63
2018-12-24T00:18:15.845Z,13.71
2018-12-24T00:19:15.824Z,13.73
2018-12-24T00:20:15.811Z,13.79
2018-12-24T00:21:15.795Z,13.71
2018-12-24T00:22:15.785Z,13.81
2018-12-24T00:23:15.794Z,13.88
2018-12-24T00:24:15.772Z,13.87
2018-12-24T00:25:15.765Z,13.91
2018-12-24T00:26:15.748Z,13.81
2018-12-24T00:27:15.735Z,13.85
2018-12-24T00:28:15.716Z,13.89
2018-12-24T00:29:15.719Z,13.89
2018-12-24T00:30:15.703Z,14.00
2018-12-24T00:31:15.679Z,13.89
2018-12-24T00:32:15.668Z,13.87
2018-12-24T00:33:15.658Z,13.89
2018-12-24T00:34:15.656Z,13.97
2018-12-24T00:35:15.632Z,13.97
2018-12-24T00:36:15.624Z,14.04
2018-12-24T00:37:15.611Z,14.04
2018-12-24T00:38:15.599Z,13.99
2018-12-24T00:39:15.680Z,14.07
2018-12-24T00:40:15.576Z,14.07
2018-12-24T00:41:15.563Z,14.03
2018-12-24T00:42:16.002Z,14.03
2018-12-24T00:43:15.558Z,14.03
2018-12-24T00:44:15.539Z,13.95
2018-12-24T00:45:15.526Z,13.97
2018-12-24T00:46:15.508Z,13.81
2018-12-24T00:47:15.496Z,13.36
2018-12-24T00:48:15.492Z,12.47
2018-12-24T00:49:15.484Z,11.98
2018-12-24T00:50:15.461Z,11.58
2018-12-24T00:51:15.450Z,11.11
2018-12-24T00:52:15.438Z,10.82
2018-12-24T00:53:15.426Z,10.61
2018-12-24T00:54:15.433Z,10.48
2018-12-24T00:55:15.406Z,10.34
2018-12-24T00:56:15.398Z,10.23
2018-12-24T00:57:15.382Z,10.26
2018-12-24T00:58:15.371Z,10.17
2018-12-24T00:59:15.377Z,10.11
2018-12-24T01:00:15.350Z,10.07
2018-12-24T01:01:15.427Z,10.07
2018-12-24T01:02:15.324Z,10.09
2018-12-24T01:03:15.315Z,10.15
2018-12-24T01:04:15.308Z,10.12
2018-12-24T01:05:15.308Z,10.09
2018-12-24T01:06:15.281Z,10.07
2018-12-24T01:07:15.272Z,10.11
2018-12-24T01:08:15.257Z,10.20
2018-12-24T01:09:15.254Z,10.17
2018-12-24T01:10:15.246Z,10.22
2018-12-24T01:11:15.258Z,10.17
2018-12-24T01:12:15.215Z,10.09
2018-12-24T01:13:15.201Z,10.25
2018-12-24T01:14:15.194Z,10.22
2018-12-24T01:15:15.189Z,10.29
2018-12-24T01:16:15.170Z,10.22
2018-12-24T01:17:15.160Z,10.22
2018-12-24T01:18:15.145Z,10.18
2018-12-24T01:19:15.132Z,10.25
2018-12-24T01:20:15.133Z,10.27
2018-12-24T01:21:15.110Z,10.20
2018-12-24T01:22:15.098Z,10.18
2018-12-24T01:23:15.091Z,10.26
2018-12-24T01:24:15.077Z,10.27
2018-12-24T01:25:15.077Z,10.26
2018-12-24T01:26:15.057Z,10.22
2018-12-24T01:27:15.044Z,10.27
2018-12-24T01:28:15.032Z,10.29
2018-12-24T01:29:15.032Z,10.18
2018-12-24T01:30:15.024Z,10.20
2018-12-24T01:31:14.999Z,10.25
2018-12-24T01:32:14.990Z,10.22
2018-12-24T01:33:14.974Z,10.14
2018-12-24T01:34:14.967Z,10.26
2018-12-24T01:35:14.970Z,10.23
2018-12-24T01:36:14.943Z,10.17
2018-12-24T01:37:14.936Z,10.14
2018-12-24T01:38:14.929Z,10.15
2018-12-24T01:39:14.922Z,10.11
2018-12-24T01:40:14.908Z,10.15
2018-12-24T01:41:14.900Z,10.08
2018-12-24T01:42:14.873Z,10.08
2018-12-24T01:43:14.864Z,10.09
2018-12-24T01:44:14.850Z,9.99
2018-12-24T01:45:14.839Z,10.04
2018-12-24T01:46:14.837Z,9.96
2018-12-24T01:47:14.820Z,9.96
2018-12-24T01:48:14.816Z,9.90
2018-12-24T01:49:14.825Z,9.93
2018-12-24T01:50:14.782Z,9.90
2018-12-24T01:51:14.787Z,9.75
2018-12-24T01:52:14.762Z,9.78
2018-12-24T01:53:14.751Z,9.66
2018-12-24T01:54:14.740Z,9.68
2018-12-24T01:55:14.725Z,9.65
2018-12-24T01:56:14.724Z,9.60
2018-12-24T01:57:14.705Z,9.68
2018-12-24T01:58:14.692Z,9.68
2018-12-24T01:59:16.803Z,9.66
2018-12-24T02:00:14.672Z,9.69
2018-12-24T02:01:14.676Z,9.64
2018-12-24T02:02:14.656Z,9.56
2018-12-24T02:03:14.638Z,9.56
2018-12-24T02:04:14.630Z,9.54
2018-12-24T02:05:14.615Z,9.54
2018-12-24T02:07:59.580Z,9.46
2018-12-24T02:08:23.301Z,9.40
2018-12-24T02:09:23.288Z,9.39
2018-12-24T02:10:23.279Z,9.38
2018-12-24T02:11:23.295Z,9.38
2018-12-24T02:12:23.253Z,9.42
2018-12-24T02:13:23.242Z,9.35
2018-12-24T02:14:23.234Z,9.31
2018-12-24T02:15:23.227Z,9.18
2018-12-24T02:16:23.214Z,9.26
2018-12-24T02:17:23.214Z,9.28
2018-12-24T02:18:23.206Z,9.28
2018-12-24T02:19:23.185Z,9.23
2018-12-24T02:20:23.170Z,9.32
2018-12-24T02:21:23.158Z,9.28
2018-12-24T02:22:23.155Z,9.31
2018-12-24T02:23:23.147Z,9.23
2018-12-24T02:24:23.130Z,9.23
2018-12-24T02:25:23.110Z,9.20
2018-12-24T02:26:23.107Z,9.18
2018-12-24T02:27:23.160Z,9.13
2018-12-24T02:28:23.086Z,9.14
2018-12-24T02:29:23.072Z,8.99
2018-12-24T02:30:23.062Z,9.11
2018-12-24T02:31:23.052Z,9.05
2018-12-24T02:32:23.051Z,9.10
2018-12-24T02:33:23.027Z,9.05
2018-12-24T02:34:23.012Z,9.04
2018-12-24T02:35:23.015Z,8.98
2018-12-24T02:36:22.994Z,9.02
2018-12-24T02:37:22.990Z,8.94
2018-12-24T02:38:22.975Z,8.92
2018-12-24T02:39:22.964Z,8.94
2018-12-24T02:40:22.945Z,8.92
2018-12-24T02:41:22.936Z,8.95
2018-12-24T02:42:22.933Z,8.92
2018-12-24T02:43:22.922Z,8.84
2018-12-24T02:44:22.902Z,8.91
2018-12-24T02:45:22.896Z,8.94
2018-12-24T02:46:22.890Z,8.91
2018-12-24T02:47:22.878Z,8.94
2018-12-24T02:48:22.876Z,8.89
2018-12-24T02:49:22.861Z,8.86
2018-12-24T02:50:22.840Z,8.96
2018-12-24T02:51:22.832Z,8.89
2018-12-24T02:52:22.834Z,8.89
2018-12-24T02:53:22.804Z,8.86
2018-12-24T02:54:22.813Z,8.86
2018-12-24T02:55:22.787Z,8.83
2018-12-24T02:56:22.772Z,8.79
2018-12-24T02:57:22.769Z,8.74
2018-12-24T02:58:22.752Z,8.81
2018-12-24T02:59:22.738Z,8.74
2018-12-24T03:00:22.738Z,8.74
2018-12-24T03:01:22.718Z,8.76
2018-12-24T03:02:22.725Z,8.77
2018-12-24T03:03:22.707Z,8.65
2018-12-24T03:04:22.682Z,8.62
2018-12-24T03:05:22.686Z,8.59
2018-12-24T03:06:22.675Z,8.61
2018-12-24T03:07:22.659Z,8.52
2018-12-24T03:08:22.652Z,8.55
2018-12-24T03:09:22.628Z,8.58
2018-12-24T03:10:22.617Z,8.55
2018-12-24T03:11:22.606Z,8.47
2018-12-24T03:12:22.593Z,8.55
2018-12-24T03:13:22.592Z,8.38
2018-12-24T03:14:22.583Z,8.38
2018-12-24T03:15:22.559Z,8.40
2018-12-24T03:16:22.549Z,8.41
2018-12-24T03:17:22.537Z,8.38
2018-12-24T03:18:22.538Z,8.36
2018-12-24T03:19:22.517Z,8.28
2018-12-24T03:20:22.506Z,8.34
2018-12-24T03:21:22.492Z,8.34
2018-12-24T03:22:22.485Z,8.28
2018-12-24T03:23:22.487Z,8.26
2018-12-24T03:24:22.468Z,8.29
2018-12-24T03:25:22.455Z,8.18
2018-12-24T03:26:22.444Z,8.19
2018-12-24T03:27:22.437Z,8.16
2018-12-24T03:28:22.437Z,8.11
2018-12-24T03:29:22.415Z,8.10
2018-12-24T03:30:22.399Z,8.04
2018-12-24T03:31:22.427Z,8.04
2018-12-24T03:32:22.382Z,8.04
2018-12-24T03:33:22.393Z,8.07
2018-12-24T03:34:22.352Z,8.00
2018-12-24T03:35:22.340Z,8.04
2018-12-24T03:36:22.342Z,8.04
2018-12-24T03:37:22.329Z,8.07
2018-12-24T03:38:22.308Z,8.02
2018-12-24T03:39:22.307Z,7.93
2018-12-24T03:40:22.285Z,7.92
2018-12-24T03:41:22.277Z,7.92
2018-12-24T03:42:22.262Z,8.00
2018-12-24T03:43:22.260Z,7.93
2018-12-24T03:44:22.272Z,7.93
2018-12-24T03:45:22.231Z,7.90
2018-12-24T03:46:22.221Z,7.97
2018-12-24T03:47:22.208Z,8.00
2018-12-24T03:48:22.196Z,7.90
2018-12-24T03:49:22.196Z,7.95
2018-12-24T03:50:22.176Z,7.97
2018-12-24T03:51:22.163Z,7.83
2018-12-24T03:52:22.152Z,7.90
2018-12-24T03:53:22.153Z,7.82
2018-12-24T03:54:22.146Z,7.79
2018-12-24T03:55:22.125Z,7.79
2018-12-24T03:56:22.106Z,7.83
2018-12-24T03:57:22.099Z,7.75
2018-12-24T03:58:22.085Z,7.75
2018-12-24T03:59:22.105Z,7.74
2018-12-24T04:00:22.067Z,7.71
2018-12-24T04:01:22.056Z,7.75
2018-12-24T04:02:22.048Z,7.75
2018-12-24T04:03:22.032Z,7.67
2018-12-24T04:04:22.031Z,7.63
2018-12-24T04:05:22.163Z,7.69
2018-12-24T04:06:21.999Z,7.63
2018-12-24T04:07:21.991Z,7.57
2018-12-24T04:08:21.991Z,7.60
2018-12-24T04:09:21.963Z,7.55
2018-12-24T04:10:21.965Z,7.55
2018-12-24T04:11:24.159Z,7.50
2018-12-24T04:12:21.933Z,7.55
2018-12-24T04:13:22.668Z,7.52
2018-12-24T04:14:21.907Z,7.53
2018-12-24T04:15:21.909Z,7.49
2018-12-24T04:16:21.885Z,7.45
2018-12-24T04:17:21.879Z,7.45
2018-12-24T04:18:21.869Z,7.46
2018-12-24T04:19:21.858Z,7.42
2018-12-24T04:20:21.852Z,7.40
2018-12-24T04:21:22.860Z,7.42
2018-12-24T04:22:21.833Z,7.37
2018-12-24T04:23:21.807Z,7.37
2018-12-24T04:24:21.797Z,7.42
2018-12-24T04:25:21.805Z,7.37
2018-12-24T04:26:21.775Z,7.39
2018-12-24T04:27:21.763Z,7.45
2018-12-24T04:28:21.763Z,7.37
2018-12-24T04:29:21.743Z,7.42
2018-12-24T04:30:21.743Z,7.43
2018-12-24T04:31:21.719Z,7.45
2018-12-24T04:32:21.710Z,7.40
2018-12-24T04:33:21.700Z,7.34
2018-12-24T04:34:21.691Z,7.37
2018-12-24T04:35:21.688Z,7.31
2018-12-24T04:36:21.663Z,7.43
2018-12-24T04:37:21.654Z,7.34
2018-12-24T04:38:21.643Z,7.43
2018-12-24T04:39:21.637Z,7.27
2018-12-24T04:40:21.645Z,7.34
2018-12-24T04:41:21.616Z,7.43
2018-12-24T04:42:21.597Z,7.35
2018-12-24T04:43:21.589Z,7.34
2018-12-24T04:44:21.576Z,7.40
2018-12-24T04:45:21.585Z,7.37
2018-12-24T04:46:21.581Z,7.45
2018-12-24T04:47:21.560Z,7.31
2018-12-24T04:48:21.530Z,7.32
2018-12-24T04:49:21.529Z,7.42
2018-12-24T04:50:21.513Z,7.35
2018-12-24T04:51:21.527Z,7.32
2018-12-24T04:52:21.495Z,7.43
2018-12-24T04:53:21.475Z,7.39
2018-12-24T04:54:21.467Z,7.35
2018-12-24T04:55:21.455Z,7.48
2018-12-24T04:56:21.462Z,7.35
2018-12-24T04:57:21.450Z,7.40
2018-12-24T04:58:21.421Z,7.39
2018-12-24T04:59:21.410Z,7.32
2018-12-24T05:00:21.400Z,7.28
2018-12-24T05:01:21.399Z,7.32
2018-12-24T05:02:21.382Z,7.27
2018-12-24T05:03:21.367Z,7.25
2018-12-24T05:04:21.358Z,7.25
2018-12-24T05:05:21.343Z,7.31
2018-12-24T05:06:21.343Z,7.31
2018-12-24T05:07:21.324Z,7.28
2018-12-24T05:08:21.320Z,7.30
2018-12-24T05:09:21.300Z,7.30
2018-12-24T05:10:21.289Z,7.27
2018-12-24T05:11:21.289Z,7.30
2018-12-24T05:12:21.266Z,7.16
2018-12-24T05:13:21.259Z,7.30
2018-12-24T05:14:21.252Z,7.34
2018-12-24T05:15:21.343Z,7.30
2018-12-24T05:16:21.240Z,7.28
2018-12-24T05:17:21.215Z,7.15
2018-12-24T05:18:21.201Z,7.24
2018-12-24T05:19:21.189Z,7.32
2018-12-24T05:20:21.180Z,7.27
2018-12-24T05:21:21.172Z,7.23
2018-12-24T05:22:21.166Z,7.31
2018-12-24T05:23:21.145Z,7.30
2018-12-24T05:24:21.137Z,7.28
2018-12-24T05:25:21.125Z,7.17
2018-12-24T05:26:21.128Z,7.28
2018-12-24T05:27:21.113Z,7.31
2018-12-24T05:28:21.087Z,7.30
2018-12-24T05:29:21.106Z,7.28
2018-12-24T05:30:21.068Z,7.28
2018-12-24T05:31:21.056Z,7.28
2018-12-24T05:32:21.067Z,7.27
2018-12-24T05:33:21.034Z,7.30
2018-12-24T05:34:21.022Z,7.40
2018-12-24T05:35:21.012Z,7.27
2018-12-24T05:36:21.007Z,7.25
2018-12-24T05:37:21.002Z,7.40
2018-12-24T05:38:20.990Z,7.42
2018-12-24T05:39:20.979Z,7.30
2018-12-24T05:40:20.957Z,7.39
2018-12-24T05:41:20.947Z,7.34
2018-12-24T05:42:20.945Z,7.43
2018-12-24T05:43:20.931Z,7.43
2018-12-24T05:44:20.914Z,7.40
2018-12-24T05:45:20.903Z,7.43
2018-12-24T05:46:20.890Z,7.45
2018-12-24T05:47:20.893Z,7.45
2018-12-24T05:48:20.875Z,7.37
2018-12-24T05:49:20.884Z,7.31
2018-12-24T05:50:20.848Z,7.39
2018-12-24T05:51:20.838Z,7.32
2018-12-24T05:52:20.846Z,7.43
2018-12-24T05:53:20.815Z,7.39
2018-12-24T05:54:20.802Z,7.48
2018-12-24T05:55:20.791Z,7.42
2018-12-24T05:56:20.783Z,7.40
2018-12-24T05:57:20.773Z,7.48
2018-12-24T05:58:20.791Z,7.49
2018-12-24T05:59:20.749Z,7.43
2018-12-24T06:00:20.754Z,7.40
2018-12-24T06:01:20.724Z,7.43
2018-12-24T06:02:20.714Z,7.48
2018-12-24T06:03:20.714Z,7.52
2018-12-24T06:04:22.226Z,7.49
2018-12-24T06:05:20.680Z,7.50
2018-12-24T06:06:20.674Z,7.49
2018-12-24T06:07:20.659Z,7.52
2018-12-24T06:08:20.663Z,7.58
2018-12-24T06:09:20.639Z,7.50
2018-12-24T06:10:20.625Z,7.50
2018-12-24T06:11:20.618Z,7.45
2018-12-24T06:12:20.606Z,7.57
2018-12-24T06:13:21.564Z,7.61
2018-12-24T06:14:20.586Z,7.57
2018-12-24T06:15:20.568Z,7.50
2018-12-24T06:16:20.562Z,7.53
2018-12-24T06:17:20.550Z,7.58
2018-12-24T06:18:20.547Z,7.57
2018-12-24T06:19:20.526Z,7.58
2018-12-24T06:20:20.519Z,7.57
2018-12-24T06:21:20.504Z,7.57
2018-12-24T06:22:20.497Z,7.53
2018-12-24T06:23:20.492Z,7.53
2018-12-24T06:24:20.470Z,7.55
2018-12-24T06:25:20.460Z,7.53
2018-12-24T06:26:20.470Z,7.61
2018-12-24T06:27:20.439Z,7.55
2018-12-24T06:28:20.447Z,7.58
2018-12-24T06:29:20.415Z,7.55
2018-12-24T06:30:20.407Z,7.55
2018-12-24T06:31:20.398Z,7.61
2018-12-24T06:32:20.382Z,7.61
2018-12-24T06:33:20.372Z,7.61
2018-12-24T06:34:20.374Z,7.52
2018-12-24T06:35:20.348Z,7.52
2018-12-24T06:36:20.344Z,7.58
2018-12-24T06:37:20.328Z,7.53
2018-12-24T06:38:20.330Z,7.50
2018-12-24T06:39:20.319Z,7.58
2018-12-24T06:40:20.293Z,7.57
2018-12-24T06:41:20.283Z,7.53
2018-12-24T06:42:20.297Z,7.53
2018-12-24T06:43:20.266Z,7.57
2018-12-24T06:44:20.273Z,7.55
2018-12-24T06:45:20.239Z,7.52
2018-12-24T06:46:20.226Z,7.52
2018-12-24T06:47:20.234Z,7.61
2018-12-24T06:48:20.205Z,7.60
2018-12-24T06:49:20.582Z,7.58
2018-12-24T06:50:20.185Z,7.64
2018-12-24T06:51:20.189Z,7.67
2018-12-24T06:52:20.163Z,7.58
2018-12-24T06:53:20.150Z,7.63
2018-12-24T06:54:20.153Z,7.64
2018-12-24T06:55:20.129Z,7.61
2018-12-24T06:56:20.120Z,7.63
2018-12-24T06:57:20.127Z,7.60
2018-12-24T06:58:20.099Z,7.67
2018-12-24T06:59:20.098Z,7.67
2018-12-24T07:00:20.098Z,7.63
2018-12-24T07:01:20.075Z,7.64
2018-12-24T07:02:20.052Z,7.67
2018-12-24T07:03:20.042Z,7.63
2018-12-24T07:04:20.055Z,7.67
2018-12-24T07:05:20.026Z,7.68
2018-12-24T07:06:20.005Z,7.60
2018-12-24T07:07:19.995Z,7.63
2018-12-24T07:08:19.989Z,7.63
2018-12-24T07:09:19.999Z,7.63
2018-12-24T07:10:19.971Z,7.61
2018-12-24T07:11:19.954Z,7.58
2018-12-24T07:12:19.940Z,7.61
2018-12-24T07:13:19.956Z,7.63
2018-12-24T07:14:19.933Z,7.67
2018-12-24T07:15:19.911Z,7.58
2018-12-24T07:16:19.900Z,7.68
2018-12-24T07:17:19.887Z,7.71
2018-12-24T07:18:19.894Z,7.64
2018-12-24T07:19:19.910Z,7.68
2018-12-24T07:20:19.855Z,7.68
2018-12-24T07:21:19.847Z,7.63
2018-12-24T07:22:19.837Z,7.63
2018-12-24T07:23:19.820Z,7.69
2018-12-24T07:24:19.811Z,7.61
2018-12-24T07:25:19.811Z,7.63
2018-12-24T07:26:19.790Z,7.55
2018-12-24T07:27:19.778Z,7.64
2018-12-24T07:28:19.772Z,7.77
2018-12-24T07:29:19.750Z,7.75
2018-12-24T07:30:19.757Z,7.57
2018-12-24T07:31:19.731Z,7.71
2018-12-24T07:32:19.718Z,7.79
2018-12-24T07:33:19.708Z,7.68
2018-12-24T07:34:19.696Z,7.77
2018-12-24T07:35:19.717Z,7.77
2018-12-24T07:36:19.684Z,7.79
2018-12-24T07:37:19.662Z,7.74
2018-12-24T07:38:19.660Z,7.79
2018-12-24T07:39:19.641Z,7.80
2018-12-24T07:40:19.654Z,7.80
2018-12-24T07:41:19.632Z,7.79
2018-12-24T07:42:19.637Z,7.79
2018-12-24T07:43:19.597Z,7.82
2018-12-24T07:44:24.081Z,7.79
2018-12-24T07:45:19.593Z,7.77
2018-12-24T07:46:19.574Z,7.82
2018-12-24T07:47:19.553Z,7.74
2018-12-24T07:48:19.539Z,7.77
2018-12-24T07:49:19.533Z,7.77
2018-12-24T07:50:19.532Z,7.74
2018-12-24T07:51:19.552Z,7.77
2018-12-24T07:52:19.499Z,7.77
2018-12-24T07:53:19.483Z,7.85
2018-12-24T07:54:19.476Z,7.83
2018-12-24T07:55:19.591Z,7.86
2018-12-24T07:56:19.459Z,7.74
2018-12-24T07:57:19.462Z,7.80
2018-12-24T07:58:19.437Z,7.79
2018-12-24T07:59:19.419Z,7.79
2018-12-24T08:00:19.421Z,7.82
2018-12-24T08:01:19.400Z,7.80
2018-12-24T08:02:19.395Z,7.82
2018-12-24T08:03:19.382Z,7.82
2018-12-24T08:04:19.375Z,7.80
2018-12-24T08:05:19.636Z,7.80
2018-12-24T08:06:19.340Z,7.87
2018-12-24T08:07:19.330Z,7.86
2018-12-24T08:08:19.319Z,7.80
2018-12-24T08:09:19.313Z,7.93
2018-12-24T08:10:19.305Z,7.83
2018-12-24T08:11:19.305Z,7.98
2018-12-24T08:12:19.275Z,7.89
2018-12-24T08:13:19.270Z,7.80
2018-12-24T08:14:19.261Z,7.82
2018-12-24T08:15:19.252Z,7.90
2018-12-24T08:16:19.293Z,7.82
2018-12-24T08:17:19.220Z,7.92
2018-12-24T08:18:19.231Z,7.95
2018-12-24T08:19:19.203Z,7.95
2018-12-24T08:20:19.187Z,7.95
2018-12-24T08:21:19.203Z,7.95
2018-12-24T08:22:19.177Z,7.92
2018-12-24T08:23:19.163Z,7.98
2018-12-24T08:24:19.203Z,7.86
2018-12-24T08:25:19.138Z,7.95
2018-12-24T08:26:19.136Z,7.98
2018-12-24T08:27:19.125Z,7.87
2018-12-24T08:28:19.099Z,7.92
2018-12-24T08:29:19.101Z,7.92
2018-12-24T08:30:19.097Z,7.97
2018-12-24T08:31:19.088Z,7.93
2018-12-24T08:32:19.059Z,8.01
2018-12-24T08:33:19.057Z,7.98
2018-12-24T08:34:19.069Z,7.87
2018-12-24T08:35:19.035Z,8.02
2018-12-24T08:36:19.030Z,8.01
2018-12-24T08:37:19.078Z,7.97
2018-12-24T08:38:18.993Z,7.92
2018-12-24T08:39:19.005Z,8.07
2018-12-24T08:40:18.966Z,8.01
2018-12-24T08:41:18.991Z,7.98
2018-12-24T08:42:18.941Z,7.90
2018-12-24T08:43:18.934Z,8.00
2018-12-24T08:44:18.935Z,8.04
2018-12-24T08:45:18.911Z,8.07
2018-12-24T08:46:18.922Z,8.08
2018-12-24T08:47:18.890Z,8.11
2018-12-24T08:48:18.883Z,8.12
2018-12-24T08:49:18.875Z,8.08
2018-12-24T08:50:18.873Z,8.12
2018-12-24T08:51:19.112Z,8.15
2018-12-24T08:52:18.842Z,8.12
2018-12-24T08:53:18.824Z,8.11
2018-12-24T08:54:18.820Z,8.08
2018-12-24T08:55:18.808Z,8.11
2018-12-24T08:56:18.788Z,8.12
2018-12-24T08:57:18.799Z,8.15
2018-12-24T08:58:18.787Z,8.12
2018-12-24T08:59:18.757Z,8.15
2018-12-24T09:00:18.746Z,8.11
2018-12-24T09:01:18.738Z,8.11
2018-12-24T09:02:18.741Z,8.18
2018-12-24T09:03:18.711Z,8.23
2018-12-24T09:04:18.697Z,8.26
2018-12-24T09:05:18.688Z,8.26
2018-12-24T09:06:18.686Z,8.33
2018-12-24T09:07:18.711Z,8.26
2018-12-24T09:08:18.665Z,8.25
2018-12-24T09:09:19.075Z,8.30
2018-12-24T09:10:18.631Z,8.29
2018-12-24T09:11:18.637Z,8.26
2018-12-24T09:12:18.629Z,8.41
2018-12-24T09:13:18.611Z,8.37
2018-12-24T09:14:18.604Z,8.40
2018-12-24T09:15:18.583Z,8.41
2018-12-24T09:16:18.565Z,8.38
2018-12-24T09:17:18.569Z,8.37
2018-12-24T09:18:18.549Z,8.41
2018-12-24T09:19:18.550Z,8.47
2018-12-24T09:20:18.540Z,8.37
2018-12-24T09:21:18.516Z,8.41
2018-12-24T09:22:18.508Z,8.43
2018-12-24T09:23:18.488Z,8.38
2018-12-24T09:24:18.488Z,8.43
2018-12-24T09:25:18.469Z,8.36
2018-12-24T09:26:18.479Z,8.47
2018-12-24T09:27:18.477Z,8.41
2018-12-24T09:28:18.439Z,8.34
2018-12-24T09:29:18.421Z,8.43
2018-12-24T09:30:18.417Z,8.34
2018-12-24T09:31:18.415Z,8.44
2018-12-24T09:32:18.431Z,8.55
2018-12-24T09:33:18.376Z,8.47
2018-12-24T09:34:18.372Z,8.50
2018-12-24T09:35:18.376Z,8.55
2018-12-24T09:36:18.447Z,8.52
2018-12-24T09:37:18.349Z,8.50
2018-12-24T09:38:18.350Z,8.48
2018-12-24T09:39:18.318Z,8.50
2018-12-24T09:40:18.304Z,8.48
2018-12-24T09:41:18.318Z,8.44
2018-12-24T09:42:18.296Z,8.40
2018-12-24T09:43:18.304Z,8.37
2018-12-24T09:44:18.270Z,8.53
2018-12-24T09:45:18.253Z,8.48
2018-12-24T09:46:18.236Z,8.45
2018-12-24T09:47:18.234Z,8.52
2018-12-24T09:48:18.224Z,8.59
2018-12-24T09:49:18.239Z,8.66
2018-12-24T09:50:18.219Z,8.62
2018-12-24T09:51:18.199Z,8.74
2018-12-24T09:52:18.171Z,8.76
2018-12-24T09:53:18.172Z,8.76
2018-12-24T09:54:18.146Z,8.81
2018-12-24T09:55:18.139Z,8.74
2018-12-24T09:56:18.130Z,8.77
2018-12-24T09:57:18.119Z,8.80
2018-12-24T09:58:18.127Z,8.76
2018-12-24T09:59:18.094Z,8.86
2018-12-24T10:00:18.084Z,8.87
2018-12-24T10:01:18.095Z,8.83
2018-12-24T10:02:18.070Z,8.74
2018-12-24T10:03:18.108Z,8.77
2018-12-24T10:04:18.052Z,8.71
2018-12-24T10:05:18.026Z,8.74
2018-12-24T10:06:18.017Z,8.68
2018-12-24T10:07:18.002Z,8.80
2018-12-24T10:08:17.995Z,8.73
2018-12-24T10:09:17.998Z,8.77
2018-12-24T10:10:17.973Z,8.77
2018-12-24T10:11:17.977Z,8.79
2018-12-24T10:12:17.949Z,8.76
2018-12-24T10:13:17.976Z,8.76
2018-12-24T10:14:17.946Z,8.79
2018-12-24T10:15:17.925Z,8.74
2018-12-24T10:16:17.903Z,8.74
2018-12-24T10:17:17.898Z,8.74
2018-12-24T10:18:17.887Z,8.77
2018-12-24T10:19:17.881Z,8.76
2018-12-24T10:20:17.875Z,8.76
2018-12-24T10:21:17.852Z,8.70
2018-12-24T10:22:17.844Z,8.76
2018-12-24T10:23:17.851Z,8.70
2018-12-24T10:24:17.835Z,8.65
2018-12-24T10:25:17.806Z,8.70
2018-12-24T10:26:17.795Z,8.66
2018-12-24T10:27:17.885Z,8.61
2018-12-24T10:28:17.789Z,8.65
2018-12-24T10:29:19.609Z,8.58
2018-12-24T10:30:17.827Z,8.59
2018-12-24T10:31:17.753Z,8.62
2018-12-24T10:32:17.780Z,8.59
2018-12-24T10:33:17.731Z,8.56
2018-12-24T10:34:17.719Z,8.55
2018-12-24T10:35:17.695Z,8.59
2018-12-24T10:36:17.683Z,8.61
2018-12-24T10:37:17.670Z,8.58
2018-12-24T10:38:17.660Z,8.59
2018-12-24T10:39:17.685Z,8.63
2018-12-24T10:40:17.662Z,8.56
2018-12-24T10:41:17.652Z,8.58
2018-12-24T10:42:17.631Z,8.68
2018-12-24T10:43:17.725Z,8.59
2018-12-24T10:44:17.614Z,8.66
2018-12-24T10:45:17.593Z,8.58
2018-12-24T10:46:17.600Z,8.61
2018-12-24T10:47:17.567Z,8.56
2018-12-24T10:48:17.556Z,8.55
2018-12-24T10:49:17.557Z,8.48
2018-12-24T10:50:17.563Z,8.55
2018-12-24T10:51:17.527Z,8.58
2018-12-24T10:52:17.512Z,8.53
2018-12-24T10:53:17.526Z,8.59
2018-12-24T10:54:17.516Z,8.63
2018-12-24T10:55:17.486Z,8.63
2018-12-24T10:56:17.480Z,8.76
2018-12-24T10:57:17.474Z,8.74
2018-12-24T10:58:17.440Z,8.73
2018-12-24T10:59:17.480Z,8.79
2018-12-24T11:00:17.418Z,8.74
2018-12-24T11:01:17.454Z,8.79
2018-12-24T11:02:17.401Z,8.71
2018-12-24T11:03:17.387Z,8.74
2018-12-24T11:04:17.383Z,8.86
2018-12-24T11:05:17.396Z,8.94
2018-12-24T11:06:17.352Z,8.89
2018-12-24T11:07:17.364Z,8.83
2018-12-24T11:08:17.338Z,8.79
2018-12-24T11:09:17.378Z,8.76
2018-12-24T11:10:17.325Z,8.71
2018-12-24T11:11:17.305Z,8.74
2018-12-24T11:12:17.289Z,8.73
2018-12-24T11:13:17.307Z,8.76
2018-12-24T11:14:17.269Z,8.73
2018-12-24T11:15:24.847Z,8.70
2018-12-24T11:16:18.242Z,8.68
2018-12-24T11:17:17.232Z,8.76
2018-12-24T11:18:17.222Z,8.68
2018-12-24T11:19:17.210Z,8.74
2018-12-24T11:20:17.207Z,8.76
2018-12-24T11:21:17.189Z,8.80
2018-12-24T11:22:17.210Z,8.79
2018-12-24T11:23:17.208Z,8.68
2018-12-24T11:24:17.164Z,8.74
2018-12-24T11:25:17.176Z,8.79
2018-12-24T11:26:17.163Z,8.73
2018-12-24T11:27:17.130Z,8.79
2018-12-24T11:28:17.116Z,8.79
2018-12-24T11:29:17.107Z,8.76
2018-12-24T11:30:17.105Z,8.66
2018-12-24T11:31:17.075Z,8.66
2018-12-24T11:32:17.070Z,8.66
2018-12-24T11:33:17.061Z,8.68
2018-12-24T11:34:17.044Z,8.61
2018-12-24T11:35:17.078Z,8.70
2018-12-24T11:36:17.047Z,8.61
2018-12-24T11:37:17.015Z,8.66
2018-12-24T11:38:17.009Z,8.62
2018-12-24T11:39:16.989Z,8.58
2018-12-24T11:40:17.075Z,8.62
2018-12-24T11:41:17.005Z,8.65
2018-12-24T11:42:16.953Z,8.55
2018-12-24T11:43:16.948Z,8.53
2018-12-24T11:44:16.938Z,8.66
2018-12-24T11:45:16.989Z,8.62
2018-12-24T11:46:16.926Z,8.65
2018-12-24T11:47:16.929Z,8.65
2018-12-24T11:48:16.932Z,8.58
2018-12-24T11:49:16.881Z,8.73
2018-12-24T11:50:16.889Z,8.73
2018-12-24T11:51:16.857Z,8.73
2018-12-24T11:52:16.870Z,8.71
2018-12-24T11:53:16.836Z,8.74
2018-12-24T11:54:16.869Z,8.74
2018-12-24T11:55:16.856Z,8.79
2018-12-24T11:56:16.844Z,8.71
2018-12-24T11:57:16.902Z,8.76
2018-12-24T11:58:16.875Z,8.76
2018-12-24T11:59:16.774Z,8.76
2018-12-24T12:00:16.774Z,8.76
2018-12-24T12:01:16.773Z,8.77
2018-12-24T12:02:16.768Z,8.76
2018-12-24T12:03:16.724Z,8.76
2018-12-24T12:04:16.723Z,8.68
2018-12-24T12:05:16.761Z,8.76
2018-12-24T12:06:19.816Z,8.81
2018-12-24T12:07:16.783Z,8.80
2018-12-24T12:08:16.688Z,8.81
2018-12-24T12:09:16.673Z,8.68
2018-12-24T12:10:16.719Z,8.77
2018-12-24T12:11:16.794Z,8.76
2018-12-24T12:12:16.641Z,8.91
2018-12-24T12:13:16.620Z,8.94
2018-12-24T12:14:16.610Z,8.94
2018-12-24T12:15:16.643Z,8.94
2018-12-24T12:16:16.670Z,8.98
2018-12-24T12:17:16.570Z,8.95
2018-12-24T12:18:16.562Z,8.92
2018-12-24T12:19:16.580Z,8.92
2018-12-24T12:20:16.554Z,8.91
2018-12-24T12:21:16.547Z,8.89
2018-12-24T12:22:16.517Z,8.98
2018-12-24T12:23:16.514Z,8.92
2018-12-24T12:24:16.496Z,8.95
2018-12-24T12:25:16.503Z,8.99
2018-12-24T12:26:16.477Z,8.95
2018-12-24T12:27:16.458Z,8.94
2018-12-24T12:28:17.270Z,8.92
2018-12-24T12:29:16.441Z,8.95
2018-12-24T12:30:16.468Z,8.95
2018-12-24T12:31:16.443Z,8.94
2018-12-24T12:32:16.411Z,8.89
2018-12-24T12:33:16.399Z,8.89
2018-12-24T12:34:16.405Z,8.89
2018-12-24T12:35:16.374Z,8.84
2018-12-24T12:36:16.385Z,8.87
2018-12-24T12:37:16.349Z,8.94
2018-12-24T12:38:16.364Z,8.81
2018-12-24T12:39:16.375Z,8.80
2018-12-24T12:40:16.322Z,8.76
2018-12-24T12:41:16.326Z,8.76
2018-12-24T12:42:17.697Z,8.71
2018-12-24T12:43:16.287Z,8.74
2018-12-24T12:44:16.289Z,8.68
2018-12-24T12:45:16.265Z,8.68
2018-12-24T12:46:16.455Z,8.74
2018-12-24T12:47:16.246Z,8.76
2018-12-24T12:48:16.238Z,8.76
2018-12-24T12:49:16.224Z,8.73
2018-12-24T12:50:16.232Z,8.86
2018-12-24T12:51:16.198Z,8.91
2018-12-24T12:52:16.193Z,8.94
2018-12-24T12:53:16.199Z,8.95
2018-12-24T12:54:16.164Z,8.84
2018-12-24T12:55:16.161Z,8.95
2018-12-24T12:56:16.151Z,8.92
2018-12-24T12:57:16.154Z,8.83
2018-12-24T12:58:16.129Z,8.87
2018-12-24T12:59:16.106Z,8.89
2018-12-24T13:00:16.130Z,8.94
2018-12-24T13:01:16.107Z,8.87
2018-12-24T13:02:16.087Z,8.89
2018-12-24T13:03:16.069Z,8.91
2018-12-24T13:04:16.066Z,8.89
2018-12-24T13:05:16.042Z,8.86
2018-12-24T13:06:16.085Z,8.83
2018-12-24T13:07:16.033Z,8.77
2018-12-24T13:08:16.104Z,8.76
2018-12-24T13:09:16.016Z,8.79
2018-12-24T13:10:15.988Z,8.80
2018-12-24T13:11:15.990Z,8.84
2018-12-24T13:12:15.999Z,8.73
2018-12-24T13:13:15.958Z,8.80
2018-12-24T13:14:15.940Z,8.74
2018-12-24T13:15:15.956Z,8.79